Time;durP1;ratioP1;P1;durP2;ratioP2;P2;SDS_P1;SDS_P2;PMS_P1;PMS_P2;Temp;Humidity;BMP_temperature;BMP_pressure;BME280_temperature;BME280_humidity;BME280_pressure;Samples;Min_cycle;Max_cycle;Signal;HPM_P1;HPM_P2
2022/05/11 00:00:30;;;;;;;7.20;6.50;;;16.50;99.90;;;;;;5054390;28;20047;-69
2022/05/11 00:02:55;;;;;;;6.68;6.07;;;16.50;99.90;;;;;;5054077;28;20033;-68
2022/05/11 00:05:21;;;;;;;6.82;6.28;;;16.40;99.90;;;;;;5053734;28;20108;-68
2022/05/11 00:07:48;;;;;;;6.35;5.75;;;16.40;99.90;;;;;;5053899;28;20477;-68
2022/05/11 00:10:14;;;;;;;8.02;6.88;;;16.30;99.90;;;;;;5052942;28;20104;-69
2022/05/11 00:12:45;;;;;;;7.55;6.85;;;16.30;99.90;;;;;;5054190;28;20029;-69
2022/05/11 00:15:21;;;;;;;6.43;5.82;;;16.30;99.90;;;;;;5052961;28;20033;-68
2022/05/11 00:17:47;;;;;;;7.22;6.30;;;16.20;99.90;;;;;;5053926;28;20033;-68
2022/05/11 00:20:15;;;;;;;5.95;5.32;;;16.20;99.90;;;;;;5035249;28;20032;-69
2022/05/11 00:22:41;;;;;;;6.82;6.22;;;16.20;99.90;;;;;;5053855;28;20028;-70
2022/05/11 00:25:08;;;;;;;6.72;6.03;;;16.10;99.90;;;;;;5053045;28;20029;-69
2022/05/11 00:27:34;;;;;;;6.85;6.15;;;16.10;99.90;;;;;;5053852;28;20440;-69
2022/05/11 00:29:59;;;;;;;7.18;6.28;;;16.10;99.90;;;;;;5052984;28;20020;-69
2022/05/11 00:32:25;;;;;;;6.57;5.85;;;16.10;99.90;;;;;;5053653;28;20032;-69
2022/05/11 00:34:52;;;;;;;6.55;5.95;;;16.00;99.90;;;;;;5053783;28;20477;-69
2022/05/11 00:37:18;;;;;;;6.93;6.22;;;16.00;99.90;;;;;;5051787;28;20378;-69
2022/05/11 00:39:45;;;;;;;6.60;6.00;;;15.90;99.90;;;;;;5053566;28;20057;-69
2022/05/11 00:42:11;;;;;;;6.18;5.57;;;15.90;99.90;;;;;;5052589;28;20493;-69
2022/05/11 00:44:36;;;;;;;7.28;5.75;;;15.90;99.90;;;;;;5053326;28;20033;-69
2022/05/11 00:47:20;;;;;;;7.25;6.55;;;15.80;99.90;;;;;;5052670;28;20040;-69
2022/05/11 00:49:50;;;;;;;7.70;6.63;;;15.80;99.90;;;;;;5053567;28;20031;-69
2022/05/11 00:52:22;;;;;;;;;;;15.80;99.90;;;;;;5052772;28;20120;-69
2022/05/11 00:54:56;;;;;;;8.07;6.32;;;15.70;99.90;;;;;;5052895;28;19912;-69
2022/05/11 00:57:31;;;;;;;6.47;5.88;;;15.70;99.90;;;;;;5052768;28;20021;-69
2022/05/11 00:59:58;;;;;;;6.90;5.68;;;15.70;99.90;;;;;;5053269;28;20025;-69
2022/05/11 01:02:25;;;;;;;5.55;5.05;;;15.70;99.90;;;;;;5053751;28;20029;-68
2022/05/11 01:04:56;;;;;;;6.95;5.05;;;15.70;99.90;;;;;;5053445;28;20710;-68
2022/05/11 01:07:22;;;;;;;5.90;5.30;;;15.80;99.90;;;;;;5052080;28;20123;-68
2022/05/11 01:09:48;;;;;;;5.63;4.97;;;15.90;99.90;;;;;;5052947;28;20029;-68
2022/05/11 01:12:17;;;;;;;5.45;4.80;;;16.10;99.90;;;;;;5052122;28;20033;-68
2022/05/11 01:14:46;;;;;;;7.53;4.95;;;16.30;99.90;;;;;;5052762;28;20017;-68
2022/05/11 01:17:12;;;;;;;5.47;4.60;;;16.40;99.90;;;;;;5052122;28;20040;-68
2022/05/11 01:19:45;;;;;;;5.95;5.40;;;16.50;99.90;;;;;;5052883;28;20025;-68
2022/05/11 01:22:37;;;;;;;6.15;5.55;;;16.60;99.90;;;;;;5051785;28;20025;-68
2022/05/11 01:25:05;;;;;;;6.97;6.38;;;16.60;99.90;;;;;;5052152;28;20029;-68
2022/05/11 01:27:33;;;;;;;7.47;6.65;;;16.50;99.90;;;;;;5052286;28;20098;-68
2022/05/11 01:30:10;;;;;;;8.32;7.00;;;16.40;99.90;;;;;;5052155;28;20214;-68
2022/05/11 01:32:37;;;;;;;6.68;6.07;;;16.30;99.90;;;;;;5052339;28;20052;-68
2022/05/11 01:35:14;;;;;;;9.05;6.72;;;16.20;99.90;;;;;;5051707;28;20052;-68
2022/05/11 01:37:48;;;;;;;7.45;6.75;;;16.10;99.90;;;;;;5051877;28;20086;-68
2022/05/11 01:40:14;;;;;;;8.32;7.53;;;16.00;99.90;;;;;;5051210;28;20048;-68
2022/05/11 01:42:41;;;;;;;8.60;7.38;;;15.90;99.90;;;;;;5052431;28;20142;-69
2022/05/11 01:45:07;;;;;;;8.40;7.60;;;15.80;99.90;;;;;;5051113;28;20040;-68
2022/05/11 01:47:33;;;;;;;8.45;7.55;;;15.70;99.90;;;;;;5052247;28;20041;-68
2022/05/11 01:49:58;;;;;;;8.75;7.85;;;15.60;99.90;;;;;;5052017;28;20029;-70
2022/05/11 01:52:24;;;;;;;8.98;7.75;;;15.60;99.90;;;;;;5051794;28;20374;-67
2022/05/11 01:54:50;;;;;;;8.57;7.72;;;15.50;99.90;;;;;;5052349;28;20367;-69
2022/05/11 01:57:15;;;;;;;8.88;7.72;;;15.40;99.90;;;;;;5051274;28;20025;-70
2022/05/11 01:59:41;;;;;;;10.00;8.43;;;15.30;99.90;;;;;;5052409;28;20064;-68
2022/05/11 02:02:06;;;;;;;8.90;8.02;;;15.30;99.90;;;;;;5051043;28;20112;-69
2022/05/11 02:10:00;;;;;;;9.13;8.20;;;15.10;99.90;;;;;;5052007;28;20043;-67
2022/05/11 02:12:26;;;;;;;8.55;7.65;;;15.00;99.90;;;;;;5051474;28;20025;-69
2022/05/11 02:14:52;;;;;;;9.57;8.57;;;15.00;99.90;;;;;;5052051;28;20378;-69
2022/05/11 02:17:20;;;;;;;9.75;8.18;;;14.90;99.90;;;;;;5051003;28;20078;-69
2022/05/11 02:19:45;;;;;;;10.70;9.60;;;14.90;99.90;;;;;;5052046;28;20033;-69
2022/05/11 02:22:11;;;;;;;10.50;9.15;;;14.80;99.90;;;;;;5050801;28;20464;-70
2022/05/11 02:24:37;;;;;;;9.23;8.20;;;14.80;99.90;;;;;;5051752;28;20521;-69
2022/05/11 02:27:04;;;;;;;11.07;9.20;;;14.70;99.90;;;;;;5051155;28;20037;-69
2022/05/11 02:29:29;;;;;;;10.68;8.73;;;14.70;99.90;;;;;;5051663;28;20029;-69
2022/05/11 02:31:55;;;;;;;10.93;9.20;;;14.70;99.90;;;;;;5051492;28;20033;-69
2022/05/11 02:37:18;;;;;;;10.20;9.15;;;14.60;99.90;;;;;;5016500;28;20033;-69
2022/05/11 02:39:45;;;;;;;10.52;9.18;;;14.60;99.90;;;;;;5051357;28;20056;-69
2022/05/11 02:42:11;;;;;;;10.10;9.13;;;14.50;99.90;;;;;;5050582;28;20488;-69
2022/05/11 02:44:36;;;;;;;15.40;8.70;;;14.50;99.90;;;;;;5051672;28;20033;-69
2022/05/11 02:47:02;;;;;;;9.88;8.88;;;14.50;99.90;;;;;;5051407;28;20040;-69
2022/05/11 02:49:28;;;;;;;12.32;9.82;;;14.40;99.90;;;;;;5051459;28;20025;-69
2022/05/11 02:51:53;;;;;;;10.93;9.63;;;14.40;99.90;;;;;;5051668;28;20078;-69
2022/05/11 02:54:20;;;;;;;11.63;10.43;;;14.40;99.90;;;;;;5050452;28;20021;-69
2022/05/11 02:56:45;;;;;;;11.07;9.98;;;14.40;99.90;;;;;;5051456;28;20040;-69
2022/05/11 02:59:11;;;;;;;10.13;9.02;;;14.40;99.90;;;;;;5050695;28;20025;-69
2022/05/11 03:01:37;;;;;;;10.70;9.43;;;14.40;99.90;;;;;;5051658;28;20029;-69
2022/05/11 03:04:03;;;;;;;11.55;9.55;;;14.40;99.90;;;;;;5051354;28;20052;-70
2022/05/11 03:06:28;;;;;;;11.45;9.60;;;14.40;99.90;;;;;;5050218;28;20083;-69
2022/05/11 03:08:54;;;;;;;12.57;8.38;;;14.50;99.90;;;;;;5051149;28;20029;-69
2022/05/11 03:11:20;;;;;;;11.75;9.32;;;14.50;99.90;;;;;;5050174;28;20163;-69
2022/05/11 03:13:45;;;;;;;12.48;9.70;;;14.60;99.90;;;;;;5051058;28;20063;-70
2022/05/11 03:16:11;;;;;;;11.13;9.80;;;14.60;99.90;;;;;;5050548;28;20033;-70
2022/05/11 03:18:37;;;;;;;11.20;9.65;;;14.60;99.90;;;;;;5054728;28;20025;-70
2022/05/11 03:21:02;;;;;;;12.93;10.93;;;14.60;99.90;;;;;;5055069;28;20021;-70
2022/05/11 03:23:28;;;;;;;11.80;10.57;;;14.60;99.90;;;;;;5054337;28;20099;-69
2022/05/11 03:25:54;;;;;;;13.52;10.05;;;14.70;99.90;;;;;;5054912;28;20162;-69
2022/05/11 03:28:20;;;;;;;12.05;9.55;;;14.70;99.90;;;;;;5054204;28;20094;-69
2022/05/11 03:30:46;;;;;;;14.05;11.00;;;14.70;99.90;;;;;;5055152;28;20517;-69
2022/05/11 03:35:56;;;;;;;11.88;10.68;;;14.70;99.90;;;;;;5054797;28;20039;-69
2022/05/11 03:38:22;;;;;;;11.68;10.40;;;14.70;99.90;;;;;;5053518;28;20028;-69
2022/05/11 03:40:47;;;;;;;13.63;10.40;;;14.60;99.90;;;;;;5054984;28;20053;-69
2022/05/11 03:43:13;;;;;;;12.40;11.07;;;14.60;99.90;;;;;;5053519;28;20029;-69
2022/05/11 03:45:39;;;;;;;13.68;10.55;;;14.60;99.90;;;;;;5054721;28;20025;-69
2022/05/11 03:48:05;;;;;;;11.95;10.48;;;14.50;99.90;;;;;;5054703;28;20140;-69
2022/05/11 03:50:31;;;;;;;15.07;10.98;;;14.50;99.90;;;;;;5054049;28;20032;-69
2022/05/11 03:52:57;;;;;;;13.00;10.73;;;14.60;99.90;;;;;;5054132;28;20056;-69
2022/05/11 03:55:24;;;;;;;15.93;12.68;;;14.60;99.90;;;;;;5053417;28;20039;-69
2022/05/11 03:57:50;;;;;;;15.25;10.77;;;14.70;99.90;;;;;;5054524;28;20040;-69
2022/05/11 04:00:22;;;;;;;13.48;10.88;;;14.70;99.90;;;;;;5053587;28;20028;-69
2022/05/11 04:02:49;;;;;;;13.80;10.55;;;14.70;99.90;;;;;;5054478;28;20037;-69
2022/05/11 04:05:15;;;;;;;13.95;10.57;;;14.60;99.90;;;;;;5053495;28;20040;-69
2022/05/11 04:07:42;;;;;;;12.80;10.15;;;14.70;99.90;;;;;;5053665;28;20470;-70
2022/05/11 04:10:09;;;;;;;11.52;9.77;;;14.70;99.90;;;;;;5053406;28;20029;-69
2022/05/11 04:12:35;;;;;;;12.30;10.32;;;14.60;99.90;;;;;;5054011;28;20025;-69
2022/05/11 04:15:01;;;;;;;14.02;10.77;;;14.70;99.90;;;;;;5054070;28;20079;-69
2022/05/11 04:17:27;;;;;;;10.50;9.40;;;14.80;99.90;;;;;;5053229;28;20037;-69
2022/05/11 04:19:53;;;;;;;12.55;11.23;;;14.80;99.90;;;;;;5054062;28;20032;-69
2022/05/11 04:22:18;;;;;;;14.73;10.70;;;14.90;99.90;;;;;;5053010;28;20071;-69
2022/05/11 04:24:44;;;;;;;16.75;11.02;;;14.90;99.90;;;;;;5053957;28;20068;-69
2022/05/11 04:27:10;;;;;;;15.13;11.73;;;15.10;99.90;;;;;;5052917;28;20040;-69
2022/05/11 04:29:36;;;;;;;14.60;9.73;;;15.10;99.90;;;;;;5052947;28;20036;-69
2022/05/11 04:32:02;;;;;;;12.52;10.50;;;15.20;99.90;;;;;;5053906;28;20040;-69
2022/05/11 04:34:28;;;;;;;11.30;9.38;;;15.20;99.90;;;;;;5052976;28;20182;-68
2022/05/11 04:36:54;;;;;;;10.93;8.77;;;15.10;99.90;;;;;;5053482;28;20135;-69
2022/05/11 04:39:19;;;;;;;9.05;6.53;;;15.20;99.90;;;;;;5052226;28;20067;-68
2022/05/11 04:41:45;;;;;;;6.57;5.22;;;15.30;99.90;;;;;;5053483;28;20639;-68
2022/05/11 04:44:11;;;;;;;6.57;5.47;;;15.70;99.90;;;;;;5052881;28;20027;-69
2022/05/11 04:46:37;;;;;;;12.73;7.53;;;15.80;99.90;;;;;;5053207;28;20095;-68
2022/05/11 04:49:23;;;;;;;8.77;5.75;;;16.00;99.90;;;;;;5053343;28;20030;-68
2022/05/11 04:52:07;;;;;;;8.77;4.78;;;16.10;99.90;;;;;;5053209;28;20184;-78
2022/05/11 04:54:37;;;;;;;6.90;6.18;;;16.30;99.90;;;;;;5052691;28;20478;-77
2022/05/11 04:57:04;;;;;;;9.40;7.07;;;16.40;99.90;;;;;;5054565;28;20437;-80
2022/05/11 04:59:30;;;;;;;9.73;7.35;;;16.60;99.90;;;;;;5052601;28;20025;-72
2022/05/11 05:01:57;;;;;;;11.75;8.13;;;16.50;99.90;;;;;;5051276;28;20044;-72
2022/05/11 05:04:23;;;;;;;5.43;4.53;;;16.50;99.90;;;;;;5051977;28;20539;-72
2022/05/11 05:06:48;;;;;;;7.03;4.30;;;16.50;99.90;;;;;;5048649;28;20033;-71
2022/05/11 05:09:14;;;;;;;11.48;6.20;;;16.60;99.90;;;;;;5043254;28;20036;-70
2022/05/11 05:11:40;;;;;;;8.05;5.80;;;16.80;99.90;;;;;;5041988;28;20034;-72
2022/05/11 05:14:06;;;;;;;8.23;6.10;;;16.80;99.90;;;;;;5041171;28;20028;-72
2022/05/11 05:16:34;;;;;;;8.82;7.53;;;16.90;99.90;;;;;;5041018;28;20030;-68
2022/05/11 05:19:01;;;;;;;9.25;8.10;;;16.90;99.90;;;;;;5039245;28;20095;-69
2022/05/11 05:21:27;;;;;;;10.65;8.57;;;16.90;99.90;;;;;;5037897;28;20037;-69
2022/05/11 05:23:52;;;;;;;8.13;7.10;;;16.90;99.90;;;;;;5041156;28;20026;-69
2022/05/11 05:26:18;;;;;;;9.43;7.35;;;16.70;99.90;;;;;;5041839;28;20074;-69
2022/05/11 05:31:30;;;;;;;7.18;5.65;;;16.70;99.90;;;;;;5043538;28;20536;-74
2022/05/11 05:33:59;;;;;;;8.90;4.50;;;16.80;99.90;;;;;;5046126;28;20497;-70
2022/05/11 05:36:27;;;;;;;6.70;4.70;;;16.90;99.90;;;;;;5043085;28;20101;-71
2022/05/11 05:38:53;;;;;;;4.43;4.03;;;17.10;99.90;;;;;;5042179;28;20082;-72
2022/05/11 05:41:19;;;;;;;7.75;4.95;;;17.40;99.90;;;;;;5039554;28;20026;-69
2022/05/11 05:43:44;;;;;;;4.82;4.40;;;17.60;99.90;;;;;;5049574;28;20028;-70
2022/05/11 05:46:10;;;;;;;5.00;4.03;;;17.90;99.90;;;;;;5051555;28;20044;-71
2022/05/11 05:48:36;;;;;;;7.03;4.53;;;18.20;99.90;;;;;;5049231;28;20040;-71
2022/05/11 05:51:07;;;;;;;5.75;4.32;;;18.30;99.90;;;;;;5045063;28;20029;-69
2022/05/11 05:53:33;;;;;;;5.18;4.68;;;18.50;99.90;;;;;;5039838;28;20040;-71
2022/05/11 05:55:59;;;;;;;5.00;4.50;;;18.60;99.90;;;;;;5040415;28;20034;-74
2022/05/11 05:58:25;;;;;;;5.20;4.32;;;18.70;99.90;;;;;;5042779;28;20159;-73
2022/05/11 06:00:51;;;;;;;9.27;5.07;;;18.80;99.90;;;;;;5045253;28;20100;-70
2022/05/11 06:03:21;;;;;;;5.10;4.38;;;19.00;99.90;;;;;;5041339;28;20022;-70
2022/05/11 06:05:46;;;;;;;6.45;4.80;;;19.10;99.90;;;;;;5049076;28;20041;-70
2022/05/11 06:08:15;;;;;;;4.80;4.40;;;19.30;99.90;;;;;;5044264;28;20036;-69
2022/05/11 06:10:42;;;;;;;5.40;4.38;;;19.40;99.90;;;;;;5051359;28;20104;-69
2022/05/11 06:13:08;;;;;;;5.32;4.50;;;19.50;99.90;;;;;;5054551;28;20107;-69
2022/05/11 06:15:35;;;;;;;5.68;4.65;;;19.60;99.90;;;;;;5062691;28;20178;-69
2022/05/11 06:18:02;;;;;;;8.55;4.88;;;19.70;99.90;;;;;;5051752;28;20037;-70
2022/05/11 06:20:28;;;;;;;6.47;5.00;;;19.80;99.90;;;;;;5050791;28;20040;-70
2022/05/11 06:22:54;;;;;;;6.32;4.55;;;19.90;99.80;;;;;;5051664;28;20040;-70
2022/05/11 06:25:23;;;;;;;6.10;4.72;;;20.10;99.60;;;;;;5051112;28;20021;-69
2022/05/11 06:27:49;;;;;;;7.00;4.75;;;20.20;99.30;;;;;;5043290;28;20033;-70
2022/05/11 06:30:15;;;;;;;4.97;4.38;;;20.30;99.00;;;;;;5031345;28;20026;-69
2022/05/11 06:32:41;;;;;;;7.32;4.13;;;20.40;98.80;;;;;;5031655;28;20498;-72
2022/05/11 06:35:07;;;;;;;9.32;4.07;;;20.50;98.30;;;;;;5032115;28;20024;-68
2022/05/11 06:37:33;;;;;;;7.57;4.68;;;20.60;97.90;;;;;;5031017;28;20112;-71
2022/05/11 06:39:59;;;;;;;6.43;4.30;;;20.70;97.50;;;;;;5042332;28;20116;-71
2022/05/11 06:42:25;;;;;;;4.78;4.35;;;20.80;97.10;;;;;;5050579;28;20033;-70
2022/05/11 06:44:51;;;;;;;6.20;4.22;;;20.90;96.90;;;;;;5068417;28;20028;-72
2022/05/11 06:47:17;;;;;;;4.05;3.67;;;21.00;96.20;;;;;;5071174;28;20028;-70
2022/05/11 06:49:43;;;;;;;4.45;3.92;;;21.10;96.10;;;;;;5071364;28;20025;-72
2022/05/11 06:52:09;;;;;;;4.28;3.88;;;21.20;95.80;;;;;;5072527;28;20028;-70
2022/05/11 07:00:05;;;;;;;6.82;3.95;;;21.30;94.70;;;;;;5055092;28;20055;-70
2022/05/11 07:02:30;;;;;;;7.97;3.90;;;21.40;94.30;;;;;;5054394;28;20111;-69
2022/05/11 07:04:56;;;;;;;4.30;3.83;;;21.40;94.10;;;;;;5055373;28;20096;-70
2022/05/11 07:07:22;;;;;;;4.43;3.97;;;21.50;93.90;;;;;;5054379;28;20033;-69
2022/05/11 07:09:48;;;;;;;6.30;3.60;;;21.50;93.80;;;;;;5055350;28;20037;-70
2022/05/11 07:12:21;;;;;;;6.30;4.03;;;21.60;93.50;;;;;;5041901;28;20025;-70
2022/05/11 07:14:50;;;;;;;7.28;4.28;;;21.70;93.10;;;;;;5071057;28;20079;-71
2022/05/11 07:17:59;;;;;;;6.97;3.35;;;21.80;93.10;;;;;;5066664;28;20401;-70
2022/05/11 07:20:39;;;;;;;4.00;3.60;;;22.00;92.90;;;;;;5040047;28;20534;-70
2022/05/11 07:23:06;;;;;;;5.57;4.03;;;22.10;92.40;;;;;;5050501;28;20120;-71
2022/05/11 07:25:32;;;;;;;11.13;4.07;;;22.20;91.70;;;;;;5055980;28;20078;-70
2022/05/11 07:27:59;;;;;;;4.15;3.75;;;22.30;91.30;;;;;;5055429;28;20120;-70
2022/05/11 07:30:30;;;;;;;8.32;4.25;;;22.50;90.40;;;;;;5051401;28;20401;-70
2022/05/11 07:32:56;;;;;;;5.63;3.45;;;22.50;90.50;;;;;;5054253;28;20577;-71
2022/05/11 07:35:23;;;;;;;4.38;3.60;;;22.60;90.50;;;;;;5053682;28;20104;-70
2022/05/11 07:37:49;;;;;;;4.75;3.55;;;22.70;89.90;;;;;;5053789;28;20033;-70
2022/05/11 07:40:17;;;;;;;9.77;3.22;;;22.80;89.00;;;;;;5054612;28;20063;-70
2022/05/11 07:42:44;;;;;;;3.63;3.33;;;23.00;87.50;;;;;;5053353;28;20078;-71
2022/05/11 07:45:12;;;;;;;4.70;3.00;;;23.10;86.10;;;;;;5074257;28;20111;-71
2022/05/11 07:47:39;;;;;;;15.23;3.40;;;23.20;84.40;;;;;;5073481;28;20492;-69
2022/05/11 07:50:08;;;;;;;3.50;2.83;;;23.30;83.20;;;;;;5074776;28;20024;-71
2022/05/11 07:52:34;;;;;;;3.55;3.25;;;23.40;82.80;;;;;;5067409;28;20033;-70
2022/05/11 07:55:00;;;;;;;9.25;3.70;;;23.50;81.30;;;;;;5054555;28;20044;-70
2022/05/11 08:00:10;;;;;;;7.43;3.30;;;23.60;80.10;;;;;;5054369;28;20027;-71
2022/05/11 08:02:39;;;;;;;3.88;3.30;;;23.80;80.30;;;;;;5052888;28;20044;-70
2022/05/11 08:05:16;;;;;;;4.63;3.50;;;23.80;79.80;;;;;;5053242;28;20434;-71
2022/05/11 08:07:48;;;;;;;7.38;3.38;;;24.00;79.00;;;;;;5053471;28;20028;-70
2022/05/11 08:10:23;;;;;;;7.10;2.90;;;24.10;77.80;;;;;;5053962;28;20036;-69
2022/05/11 08:12:49;;;;;;;13.40;3.80;;;24.20;77.50;;;;;;5053210;28;20115;-71
2022/05/11 08:15:17;;;;;;;11.32;3.30;;;24.30;76.90;;;;;;5074239;28;20457;-70
2022/05/11 08:17:44;;;;;;;7.88;3.10;;;24.50;75.80;;;;;;5073090;28;20215;-70
2022/05/11 08:20:15;;;;;;;6.35;2.97;;;24.60;74.50;;;;;;5064280;28;20029;-71
2022/05/11 08:22:45;;;;;;;8.18;3.13;;;24.70;73.40;;;;;;5053314;28;20835;-71
2022/05/11 08:25:13;;;;;;;10.02;3.40;;;24.70;72.90;;;;;;5054177;28;20458;-71
2022/05/11 08:27:40;;;;;;;3.13;2.63;;;24.80;72.40;;;;;;5052819;28;20060;-71
2022/05/11 08:35:37;;;;;;;4.65;2.63;;;25.10;70.80;;;;;;5043578;28;21496;-71
2022/05/11 08:38:04;;;;;;;5.80;2.88;;;25.20;70.10;;;;;;5051586;28;20029;-72
2022/05/11 08:40:41;;;;;;;5.22;2.90;;;25.30;69.50;;;;;;5053127;28;20049;-70
2022/05/11 08:43:13;;;;;;;6.25;3.08;;;25.40;69.50;;;;;;5049735;28;20033;-72
2022/05/11 08:45:49;;;;;;;14.13;3.45;;;25.60;68.70;;;;;;5075176;28;20077;-71
2022/05/11 08:48:38;;;;;;;3.92;2.45;;;25.70;68.20;;;;;;5050549;28;20187;-70
2022/05/11 08:51:09;;;;;;;8.00;2.97;;;25.90;65.60;;;;;;5054618;28;20030;-71
2022/05/11 08:53:38;;;;;;;69.28;5.72;;;25.90;65.00;;;;;;5044266;28;20033;-71
2022/05/11 08:56:12;;;;;;;14.73;3.20;;;25.90;64.70;;;;;;5053254;28;20466;-71
2022/05/11 08:58:48;;;;;;;4.50;3.05;;;26.00;64.50;;;;;;5032650;28;20029;-71
2022/05/11 09:01:20;;;;;;;7.65;3.17;;;25.90;65.20;;;;;;5048344;28;20024;-70
2022/05/11 09:03:52;;;;;;;11.98;3.70;;;26.00;65.80;;;;;;5052381;28;20174;-71
2022/05/11 09:06:28;;;;;;;3.60;2.85;;;26.10;64.90;;;;;;5053203;28;20029;-70
2022/05/11 09:08:56;;;;;;;11.52;4.13;;;26.20;64.70;;;;;;5053424;28;20067;-72
2022/05/11 09:11:25;;;;;;;5.93;3.28;;;26.30;64.80;;;;;;5051094;28;20159;-72
2022/05/11 09:13:50;;;;;;;4.93;3.15;;;26.30;64.90;;;;;;5061312;28;20025;-72
2022/05/11 09:16:27;;;;;;;4.72;3.30;;;26.40;64.80;;;;;;5073343;28;20381;-71
2022/05/11 09:18:56;;;;;;;5.40;3.30;;;26.50;65.00;;;;;;5072566;28;20043;-71
2022/05/11 09:21:29;;;;;;;4.88;2.85;;;;;;;;;;5072659;28;20052;-71
2022/05/11 09:24:01;;;;;;;9.18;3.10;;;;;;;;;;5072697;28;20016;-72
2022/05/11 09:26:34;;;;;;;12.93;3.47;;;;;;;;;;5071878;28;20078;-69
2022/05/11 09:29:20;;;;;;;4.60;2.92;;;;;;;;;;5022428;28;20029;-72
2022/05/11 09:31:49;;;;;;;9.75;3.05;;;;;;;;;;5062529;28;20186;-72
2022/05/11 09:34:24;;;;;;;8.95;3.55;;;;;;;;;;5052386;28;20458;-71
2022/05/11 09:36:57;;;;;;;4.55;3.13;;;;;;;;;;5051783;28;20474;-72
2022/05/11 09:39:23;;;;;;;20.77;4.07;;;;;;;;;;5051810;28;20385;-70
2022/05/11 09:41:51;;;;;;;8.35;4.28;;;;;;;;;;5038429;28;20029;-71
2022/05/11 09:44:19;;;;;;;21.52;4.32;;;;;;;;;;5051794;28;20021;-74
2022/05/11 09:46:45;;;;;;;4.35;3.55;;;;;;;;;;5051593;28;20029;-71
2022/05/11 09:49:17;;;;;;;5.93;3.67;;;;;;;;;;5051844;28;20159;-70
2022/05/11 09:51:46;;;;;;;56.25;5.75;;;;;;;;;;5051254;28;20036;-71
2022/05/11 09:54:18;;;;;;;10.50;3.70;;;;;;;;;;5052004;28;20534;-71
2022/05/11 09:56:56;;;;;;;5.75;3.55;;;;;;;;;;5051292;28;20139;-70
2022/05/11 09:59:24;;;;;;;6.90;3.53;;;;;;;;;;5051330;28;20056;-71
2022/05/11 10:01:52;;;;;;;6.22;3.80;;;;;;;;;;5050667;28;20028;-71
2022/05/11 10:04:23;;;;;;;3.80;3.42;;;;;;;;;;5043907;28;20469;-70
2022/05/11 10:06:53;;;;;;;19.00;4.40;;;;;;;;;;5044208;28;20036;-69
2022/05/11 10:09:22;;;;;;;6.18;4.00;;;;;;;;;;5041339;28;20037;-69
2022/05/11 10:11:52;;;;;;;5.47;3.60;;;;;;;;;;5043297;28;20013;-71
2022/05/11 10:22:51;;;;;;;6.55;3.30;;;;;;;;;;5051023;28;20083;-70
2022/05/11 10:25:19;;;;;;;7.22;3.80;;;;;;;;;;5051602;28;20025;-69
2022/05/11 10:27:55;;;;;;;4.80;3.50;;;;;;;;;;5030533;28;20068;-70
2022/05/11 10:30:33;;;;;;;4.63;3.53;;;;;;;;;;5031632;28;20100;-71
2022/05/11 10:33:17;;;;;;;4.78;3.38;;;;;;;;;;5048294;28;20022;-70
2022/05/11 10:36:01;;;;;;;3.67;3.38;;;;;;;;;;5050562;28;20056;-70
2022/05/11 10:38:37;;;;;;;4.65;3.40;;;;;;;;;;5051529;28;20029;-69
2022/05/11 10:41:18;;;;;;;8.82;3.63;;;;;;;;;;5051477;28;20110;-71
2022/05/11 10:43:44;;;;;;;4.88;3.13;;;;;;;;;;5058044;28;20021;-70
2022/05/11 10:46:14;;;;;;;6.50;2.80;;;;;;;;;;5071607;28;20039;-70
2022/05/11 10:49:06;;;;;;;6.43;3.22;;;;;;;;;;5071029;28;20025;-70
2022/05/11 10:51:32;;;;;;;5.22;3.00;;;;;;;;;;5063859;28;20112;-69
2022/05/11 10:54:28;;;;;;;4.88;3.00;;;;;;;;;;5051582;28;20384;-70
2022/05/11 10:56:54;;;;;;;5.00;3.08;;;;;;;;;;5030813;28;20045;-70
2022/05/11 10:59:25;;;;;;;6.60;2.83;;;;;;;;;;5051282;28;20466;-69
2022/05/11 11:02:10;;;;;;;4.13;2.67;;;;;;;;;;5050885;28;20058;-70
2022/05/11 11:04:55;;;;;;;8.32;2.92;;;;;;;;;;5050448;28;20029;-71
2022/05/11 11:07:33;;;;;;;7.20;2.88;;;;;;;;;;5051278;28;20029;-71
2022/05/11 11:09:59;;;;;;;4.05;2.67;;;;;;;;;;5050623;28;20490;-70
2022/05/11 11:12:33;;;;;;;7.82;3.03;;;;;;;;;;5042499;28;20107;-71
2022/05/11 11:15:03;;;;;;;4.70;2.80;;;;;;;;;;5045650;28;20390;-71
2022/05/11 11:17:29;;;;;;;6.43;2.60;;;;;;;;;;5037829;28;20474;-69
2022/05/11 11:19:58;;;;;;;6.07;3.10;;;;;;;;;;5030679;28;20037;-71
2022/05/11 11:22:24;;;;;;;5.65;3.38;;;;;;;;;;5043111;28;20029;-71
2022/05/11 11:25:08;;;;;;;6.95;2.90;;;;;;;;;;5048048;28;20021;-69
2022/05/11 11:27:53;;;;;;;3.97;3.10;;;;;;;;;;5049463;28;20124;-69
2022/05/11 11:30:22;;;;;;;9.02;3.50;;;;;;;;;;5048544;28;20025;-69
2022/05/11 11:33:08;;;;;;;3.58;3.20;;;;;;;;;;5042072;28;20031;-68
2022/05/11 11:35:35;;;;;;;4.50;2.80;;;;;;;;;;5049584;28;20024;-68
2022/05/11 11:38:02;;;;;;;5.00;2.85;;;;;;;;;;5051895;28;20021;-69
2022/05/11 11:40:32;;;;;;;4.93;2.90;;;;;;;;;;5053832;28;20098;-75
2022/05/11 11:43:38;;;;;;;7.55;3.13;;;;;;;;;;5054588;28;20389;-70
2022/05/11 11:45:52;;;;;;;4.13;3.08;;;;;;;;;;5033544;28;20475;-68
2022/05/11 11:48:21;;;;;;;22.23;3.83;;;;;;;;;;5053494;28;20393;-69
2022/05/11 11:51:01;;;;;;;7.03;3.00;;;;;;;;;;5053472;28;20128;-69
2022/05/11 11:53:27;;;;;;;;;;;;;;;;;;5054497;28;20355;-68
2022/05/11 11:55:53;;;;;;;9.27;3.20;;;;;;;;;;5045157;28;19917;-69
2022/05/11 11:58:24;;;;;;;5.07;2.55;;;;;;;;;;5053906;28;20025;-69
2022/05/11 12:00:58;;;;;;;5.63;2.85;;;;;;;;;;5044941;28;20041;-69
2022/05/11 12:03:25;;;;;;;7.57;2.72;;;;;;;;;;5043708;28;20025;-69
2022/05/11 12:05:53;;;;;;;6.47;2.60;;;;;;;;;;5041414;28;20009;-71
2022/05/11 12:16:44;;;;;;;5.70;2.80;;;;;;;;;;5052786;28;20036;-69
2022/05/11 12:19:11;;;;;;;3.20;2.22;;;;;;;;;;5053406;28;20051;-69
2022/05/11 12:21:38;;;;;;;5.25;2.47;;;;;;;;;;5052814;28;20106;-68
2022/05/11 12:24:08;;;;;;;6.25;2.90;;;;;;;;;;5053522;28;20024;-83
2022/05/11 12:26:39;;;;;;;5.60;2.75;;;;;;;;;;5053235;28;20048;-71
2022/05/11 12:32:06;;;;;;;10.65;3.03;;;;;;;;;;5053570;28;20082;-70
2022/05/11 12:34:39;;;;;;;2.60;2.20;;;;;;;;;;5053490;28;20021;-72
2022/05/11 12:37:10;;;;;;;9.85;2.67;;;;;;;;;;5053375;28;20032;-78
2022/05/11 12:39:38;;;;;;;6.07;2.10;;;;;;;;;;5053093;28;20049;-75
2022/05/11 12:42:04;;;;;;;5.07;2.30;;;;;;;;;;5053257;28;20017;-76
2022/05/11 12:44:32;;;;;;;10.02;2.38;;;;;;;;;;5054612;28;20025;-77
2022/05/11 12:46:59;;;;;;;5.80;2.00;;;;;;;;;;5052702;28;20033;-76
2022/05/11 12:49:26;;;;;;;4.82;2.20;;;;;;;;;;5052449;28;20032;-74
2022/05/11 12:51:54;;;;;;;3.85;2.05;;;;;;;;;;5051704;28;20028;-75
2022/05/11 12:54:22;;;;;;;2.53;2.17;;;;;;;;;;5052661;28;20529;-77
2022/05/11 12:56:57;;;;;;;9.55;2.53;;;;;;;;;;5051782;28;20366;-74
2022/05/11 12:59:25;;;;;;;5.38;2.20;;;;;;;;;;5053192;28;20029;-76
2022/05/11 13:01:51;;;;;;;3.17;2.17;;;;;;;;;;5052034;28;20025;-75
2022/05/11 13:04:20;;;;;;;5.88;2.08;;;;;;;;;;5052898;28;20032;-75
2022/05/11 13:06:48;;;;;;;6.32;2.10;;;;;;;;;;5051896;28;20035;-75
2022/05/11 13:09:23;;;;;;;7.38;2.35;;;;;;;;;;5052271;28;20054;-75
2022/05/11 13:11:50;;;;;;;5.10;2.58;;;;;;;;;;5053431;28;20112;-73
2022/05/11 13:14:18;;;;;;;4.30;2.17;;;;;;;;;;5058808;28;20025;-72
2022/05/11 13:16:49;;;;;;;20.05;2.88;;;;;;;;;;5063886;28;20044;-69
2022/05/11 13:19:15;;;;;;;4.50;2.17;;;;;;;;;;5064371;28;20025;-71
2022/05/11 13:21:45;;;;;;;10.52;2.15;;;;;;;;;;5051798;28;20427;-73
2022/05/11 13:24:11;;;;;;;2.58;1.90;;;;;;;;;;5052623;28;20025;-75
2022/05/11 13:26:42;;;;;;;5.30;2.10;;;;;;;;;;5051286;28;20127;-73
2022/05/11 13:29:27;;;;;;;4.70;2.20;;;;;;;;;;5052477;28;20094;-76
2022/05/11 13:32:04;;;;;;;5.65;2.08;;;;;;;;;;5051163;28;20170;-69
2022/05/11 13:34:33;;;;;;;5.30;2.03;;;;;;;;;;5052352;28;20020;-76
2022/05/11 13:37:01;;;;;;;4.40;2.17;;;;;;;;;;5051605;28;20032;-74
2022/05/11 13:39:27;;;;;;;6.00;2.35;;;;;;;;;;5051650;28;20045;-75
2022/05/11 13:41:55;;;;;;;5.70;2.20;;;;;;;;;;5051108;28;20025;-74
2022/05/11 13:44:26;;;;;;;2.33;2.05;;;;;;;;;;5055669;28;20429;-76
2022/05/11 13:49:39;;;;;;;4.68;2.22;;;;;;;;;;5051534;28;20446;-68
2022/05/11 13:52:08;;;;;;;4.60;2.22;;;;;;;;;;5033874;28;20424;-69
2022/05/11 13:54:34;;;;;;;8.63;2.40;;;;;;;;;;5051403;28;20036;-68
2022/05/11 13:57:02;;;;;;;9.93;2.78;;;;;;;;;;5050883;28;20090;-69
2022/05/11 13:59:29;;;;;;;12.32;2.92;;;;;;;;;;5034127;28;20017;-71
2022/05/11 14:01:55;;;;;;;6.38;2.42;;;;;;;;;;5050354;28;20036;-75
2022/05/11 14:04:34;;;;;;;3.65;2.00;;;;;;;;;;5052141;28;20470;-70
2022/05/11 14:07:04;;;;;;;3.70;2.23;;;;;;;;;;5051166;28;20029;-69
2022/05/11 14:09:32;;;;;;;8.52;2.55;;;;;;;;;;5051460;28;20037;-69
2022/05/11 14:11:58;;;;;;;5.55;2.00;;;;;;;;;;5050306;28;20037;-70
2022/05/11 14:14:24;;;;;;;5.80;2.55;;;;;;;;;;5057119;28;20017;-71
2022/05/11 14:16:51;;;;;;;4.78;2.47;;;;;;;;;;5050899;28;20025;-74
2022/05/11 14:19:17;;;;;;;3.38;2.15;;;;;;;;;;5051712;28;20036;-75